createdAt,value
2022-09-28T00:01:16.739Z,76083.94
2022-09-28T00:03:44.358Z,76083.94
2022-09-28T00:06:15.604Z,76089.91
2022-09-28T00:08:42.176Z,76093.88
2022-09-28T00:11:13.736Z,76081.94
2022-09-28T00:13:41.184Z,76066.06
2022-09-28T00:16:14.201Z,76070.03
2022-09-28T00:18:41.203Z,76085.91
2022-09-28T00:21:28.236Z,76077.97
2022-09-28T00:24:12.999Z,76074.00
2022-09-28T00:26:45.342Z,76077.97
2022-09-28T00:29:18.630Z,76081.94
2022-09-28T00:31:45.531Z,76074.00
2022-09-28T00:34:13.160Z,76066.06
2022-09-28T00:36:43.785Z,76054.13
2022-09-28T00:39:10.342Z,76074.00
2022-09-28T00:41:36.814Z,76074.00
2022-09-28T00:44:24.643Z,76070.03
2022-09-28T00:46:56.233Z,76050.16
2022-09-28T00:49:33.393Z,76050.16
2022-09-28T00:52:01.108Z,76042.22
2022-09-28T00:54:27.951Z,76038.22
2022-09-28T00:56:54.831Z,76044.19
2022-09-28T00:59:24.420Z,76054.13
2022-09-28T01:01:51.190Z,76048.16
2022-09-28T01:04:18.138Z,76042.22
2022-09-28T01:06:46.728Z,76022.34
2022-09-28T01:09:14.504Z,76042.22
2022-09-28T01:11:42.398Z,76048.16
2022-09-28T01:14:11.877Z,76046.19
2022-09-28T01:16:41.467Z,76058.09
2022-09-28T01:19:35.563Z,76044.19
2022-09-28T01:22:39.797Z,76058.09
2022-09-28T01:25:09.181Z,76060.09
2022-09-28T01:27:52.093Z,76058.09
2022-09-28T01:30:21.111Z,76076.00
2022-09-28T01:32:55.316Z,76058.09
2022-09-28T01:35:41.480Z,76056.13
2022-09-28T01:38:30.933Z,76062.06
2022-09-28T01:40:59.473Z,76064.06
2022-09-28T01:43:32.625Z,76054.13
2022-09-28T01:46:05.972Z,76060.09
2022-09-28T01:48:39.445Z,76072.00
2022-09-28T01:51:12.148Z,76062.06
2022-09-28T01:53:51.439Z,76054.13
2022-09-28T01:56:33.962Z,76048.16
2022-09-28T01:59:10.636Z,76048.16
2022-09-28T02:01:46.029Z,76052.16
2022-09-28T02:04:18.008Z,76038.22
2022-09-28T02:07:09.907Z,76054.13
2022-09-28T02:09:44.971Z,76034.25
2022-09-28T02:12:17.785Z,76064.06
2022-09-28T02:14:50.003Z,76058.09
2022-09-28T02:17:19.780Z,76054.13
2022-09-28T02:19:46.439Z,76046.19
2022-09-28T02:22:43.044Z,76072.00
2022-09-28T02:25:20.943Z,76085.91
2022-09-28T02:27:53.599Z,76097.84
2022-09-28T02:30:20.494Z,76099.81
2022-09-28T02:32:49.888Z,76085.91
2022-09-28T02:35:19.063Z,76072.00
2022-09-28T02:37:46.242Z,76070.03
2022-09-28T02:40:18.401Z,76074.00
2022-09-28T02:43:13.615Z,76064.06
2022-09-28T02:45:59.021Z,76058.09
2022-09-28T02:49:19.904Z,76066.06
2022-09-28T02:51:43.906Z,76077.97
2022-09-28T02:54:36.444Z,76076.00
2022-09-28T02:57:05.864Z,76081.94
2022-09-28T02:59:42.091Z,76077.97
2022-09-28T03:02:19.668Z,76056.13
2022-09-28T03:05:30.308Z,76064.06
2022-09-28T03:08:03.396Z,76076.00
2022-09-28T03:10:44.304Z,76074.00
2022-09-28T03:13:13.755Z,76052.16
2022-09-28T03:15:45.188Z,76050.16
2022-09-28T03:18:14.503Z,76036.25
2022-09-28T03:20:40.963Z,76026.31
2022-09-28T03:23:23.824Z,76042.22
2022-09-28T03:25:51.074Z,76050.16
2022-09-28T03:28:17.607Z,76050.16
2022-09-28T03:30:44.106Z,76066.06
2022-09-28T03:33:10.664Z,76077.97
2022-09-28T03:35:37.181Z,76095.84
2022-09-28T03:38:03.691Z,76111.75
2022-09-28T03:40:30.275Z,76109.75
2022-09-28T03:42:58.474Z,76121.69
2022-09-28T03:45:25.119Z,76135.59
2022-09-28T03:47:52.251Z,76143.53
2022-09-28T03:50:18.732Z,76147.50
2022-09-28T03:52:45.258Z,76149.50
2022-09-28T03:55:11.854Z,76147.50
2022-09-28T03:57:41.452Z,76153.47
2022-09-28T04:00:08.912Z,76153.47
2022-09-28T04:02:49.688Z,76157.44
2022-09-28T04:05:16.204Z,76165.41
2022-09-28T04:07:45.858Z,76171.34
2022-09-28T04:10:12.367Z,76167.38
2022-09-28T04:12:38.881Z,76189.25
2022-09-28T04:15:05.965Z,76185.25
2022-09-28T04:17:36.470Z,76185.25
2022-09-28T04:20:07.159Z,76203.16
2022-09-28T04:22:33.812Z,76185.25
2022-09-28T04:25:00.274Z,76189.25
2022-09-28T04:27:45.442Z,76201.16
2022-09-28T04:30:12.053Z,76199.19
2022-09-28T04:32:38.484Z,76207.13
2022-09-28T04:35:05.520Z,76225.00
2022-09-28T04:37:32.184Z,76236.94
2022-09-28T04:39:58.662Z,76242.88
2022-09-28T04:42:25.269Z,76242.88
2022-09-28T04:44:51.780Z,76248.84
2022-09-28T04:47:18.333Z,76248.84
2022-09-28T04:49:45.891Z,76252.81
2022-09-28T04:52:17.851Z,76250.84
2022-09-28T04:54:44.856Z,76264.75
2022-09-28T04:57:11.331Z,76256.78
2022-09-28T04:59:37.816Z,76254.81
2022-09-28T05:02:04.873Z,76248.84
2022-09-28T05:04:31.495Z,76225.00
2022-09-28T05:06:59.411Z,76213.09
2022-09-28T05:09:28.199Z,76193.22
2022-09-28T05:11:54.673Z,76189.25
2022-09-28T05:14:24.479Z,76179.31
2022-09-28T05:16:51.058Z,76179.31
2022-09-28T05:19:17.837Z,76155.47
2022-09-28T05:21:45.722Z,76157.44
2022-09-28T05:24:14.824Z,76167.38
2022-09-28T05:26:41.358Z,76161.44
2022-09-28T05:29:08.116Z,76149.50
2022-09-28T05:31:34.692Z,76133.59
2022-09-28T05:34:01.216Z,76119.69
2022-09-28T05:36:28.008Z,76115.72
2022-09-28T05:38:56.888Z,76091.88
2022-09-28T05:41:23.363Z,76097.84
2022-09-28T05:43:51.680Z,76103.81
2022-09-28T05:46:18.727Z,76121.69
2022-09-28T05:48:45.236Z,76133.59
2022-09-28T05:51:12.064Z,76139.56
2022-09-28T05:53:38.543Z,76145.53
2022-09-28T05:56:05.219Z,76125.66
2022-09-28T05:58:31.689Z,76115.72
2022-09-28T06:01:01.519Z,76125.66
2022-09-28T06:03:28.450Z,76125.66
2022-09-28T06:05:55.061Z,76125.66
2022-09-28T06:08:21.902Z,76121.69
2022-09-28T06:10:48.564Z,76131.63
2022-09-28T06:13:15.021Z,76117.72
2022-09-28T06:15:42.850Z,76101.81
2022-09-28T06:18:14.833Z,76109.75
2022-09-28T06:20:42.165Z,76109.75
2022-09-28T06:23:10.107Z,76099.81
2022-09-28T06:25:36.939Z,76097.84
2022-09-28T06:28:10.048Z,76091.88
2022-09-28T06:30:38.545Z,76070.03
2022-09-28T06:33:07.851Z,76064.06
2022-09-28T06:35:35.532Z,76056.13
2022-09-28T06:38:02.667Z,76058.09
2022-09-28T06:40:29.339Z,76042.22
2022-09-28T06:43:17.816Z,76030.28
2022-09-28T06:45:50.656Z,76032.28
2022-09-28T06:48:17.576Z,76036.25
2022-09-28T06:50:44.613Z,76038.22
2022-09-28T06:53:16.473Z,76024.31
2022-09-28T06:55:49.175Z,76028.31
2022-09-28T06:58:19.567Z,76014.41
2022-09-28T07:00:47.552Z,76006.44
2022-09-28T07:03:17.171Z,76004.47
2022-09-28T07:05:45.860Z,75990.56
2022-09-28T07:08:13.085Z,75986.56
2022-09-28T07:10:47.847Z,75966.72
2022-09-28T07:13:37.509Z,75948.81
2022-09-28T07:16:03.383Z,75940.88
2022-09-28T07:18:30.108Z,75923.00
2022-09-28T07:20:59.625Z,75921.00
2022-09-28T07:23:34.183Z,75919.03
2022-09-28T07:26:08.204Z,75915.06
2022-09-28T07:28:35.349Z,75915.06
2022-09-28T07:31:03.428Z,75901.16
2022-09-28T07:33:32.926Z,75891.22
2022-09-28T07:36:00.822Z,75881.28
2022-09-28T07:38:27.319Z,75863.41
2022-09-28T07:41:12.107Z,75873.31
2022-09-28T07:43:40.054Z,75871.34
2022-09-28T07:46:10.174Z,75859.41
2022-09-28T07:48:38.007Z,75839.56
2022-09-28T07:51:05.084Z,75831.59
2022-09-28T07:53:31.634Z,75813.72
2022-09-28T07:56:05.756Z,75791.88
2022-09-28T07:58:35.165Z,75797.84
2022-09-28T08:01:10.685Z,75783.94
2022-09-28T08:03:38.982Z,75772.00
2022-09-28T08:06:09.815Z,75783.94
2022-09-28T08:08:36.552Z,75781.94
2022-09-28T08:11:05.943Z,75787.91
2022-09-28T08:13:32.507Z,75779.94
2022-09-28T08:16:03.276Z,75811.75
2022-09-28T08:18:30.912Z,75795.84
2022-09-28T08:21:15.967Z,75787.91
2022-09-28T08:23:42.443Z,75801.81
2022-09-28T08:26:13.299Z,75797.84
2022-09-28T08:28:43.277Z,75783.94
2022-09-28T08:31:09.846Z,75789.88
2022-09-28T08:33:36.479Z,75785.91
2022-09-28T08:36:04.635Z,75775.97
2022-09-28T08:38:32.716Z,75768.03
2022-09-28T08:41:16.054Z,75764.06
2022-09-28T08:43:52.779Z,75736.25
2022-09-28T08:46:25.089Z,75730.28
2022-09-28T08:52:03.469Z,75726.31
2022-09-28T08:55:00.543Z,75700.47
2022-09-28T08:57:33.800Z,75704.47
2022-09-28T09:00:02.806Z,75704.47
2022-09-28T09:02:36.164Z,75658.75
2022-09-28T09:05:06.233Z,75640.88
2022-09-28T09:07:51.703Z,75597.19
2022-09-28T09:10:36.928Z,75555.47
2022-09-28T09:13:45.860Z,75517.72
2022-09-28T09:16:27.772Z,75525.66
2022-09-28T09:19:12.911Z,75515.72
2022-09-28T09:21:56.035Z,75481.97
2022-09-28T09:25:15.292Z,75442.22
2022-09-28T09:28:12.365Z,75424.34
2022-09-28T09:30:47.682Z,75408.47
2022-09-28T09:33:26.585Z,75430.31
2022-09-28T09:36:19.433Z,75448.19
2022-09-28T09:38:52.009Z,75464.06
2022-09-28T09:41:21.235Z,75470.03
2022-09-28T09:44:11.776Z,75468.06
2022-09-28T09:46:46.789Z,75476.00
2022-09-28T09:49:19.696Z,75470.03
2022-09-28T09:51:57.226Z,75452.16
2022-09-28T09:54:49.506Z,75426.34
2022-09-28T09:57:25.701Z,75418.38
2022-09-28T09:59:52.653Z,75404.47
2022-09-28T10:02:24.037Z,75382.63
2022-09-28T10:05:04.782Z,75406.47
2022-09-28T10:07:43.741Z,75402.50
2022-09-28T10:10:22.889Z,75402.50
2022-09-28T10:12:51.233Z,75392.56
2022-09-28T10:15:25.737Z,75364.75
2022-09-28T10:17:54.758Z,75426.34
2022-09-28T10:20:23.065Z,75428.31
2022-09-28T10:22:52.028Z,75434.28
2022-09-28T10:25:19.910Z,75402.50
2022-09-28T10:27:49.638Z,75410.44
2022-09-28T10:30:18.994Z,75404.47
2022-09-28T10:32:48.829Z,75440.25
2022-09-28T10:35:23.259Z,75450.16
2022-09-28T10:38:00.320Z,75460.09
2022-09-28T10:40:30.203Z,75481.97
2022-09-28T10:43:02.007Z,75513.75
2022-09-28T10:45:35.193Z,75474.00
2022-09-28T10:48:06.287Z,75487.91
2022-09-28T10:50:34.397Z,75479.97
2022-09-28T10:53:34.674Z,75472.03
2022-09-28T10:56:20.074Z,75479.97
2022-09-28T10:58:47.106Z,75446.19
2022-09-28T11:01:18.748Z,75442.22
2022-09-28T11:04:00.983Z,75426.34
2022-09-28T11:06:31.908Z,75410.44
2022-09-28T11:09:04.633Z,75420.38
2022-09-28T11:11:39.586Z,75396.53
2022-09-28T11:14:42.067Z,75402.50
2022-09-28T11:17:28.309Z,75394.56
2022-09-28T11:19:57.238Z,75394.56
2022-09-28T11:22:38.011Z,75430.31
2022-09-28T11:25:16.383Z,75430.31
2022-09-28T11:27:54.985Z,75420.38
2022-09-28T11:30:48.293Z,75416.41
2022-09-28T11:33:20.218Z,75394.56
2022-09-28T11:35:57.571Z,75386.59
2022-09-28T11:38:48.512Z,75416.41
2022-09-28T11:41:14.997Z,75424.34
2022-09-28T11:44:13.213Z,75472.03
2022-09-28T11:47:09.054Z,75485.94
2022-09-28T11:49:47.668Z,75525.66
2022-09-28T11:52:24.945Z,75541.56
2022-09-28T11:55:04.963Z,75517.72
2022-09-28T11:57:38.536Z,75549.50
2022-09-28T12:00:10.655Z,75559.44
2022-09-28T12:02:45.617Z,75533.59
2022-09-28T12:05:21.635Z,75553.47
2022-09-28T12:07:52.133Z,75545.53
2022-09-28T12:10:35.637Z,75595.19
2022-09-28T12:13:10.201Z,75559.44
2022-09-28T12:18:46.464Z,75521.69
2022-09-28T12:21:28.115Z,75499.84
2022-09-28T12:24:01.022Z,75483.94
2022-09-28T12:26:49.942Z,75497.84
2022-09-28T12:29:43.443Z,75474.00
2022-09-28T12:32:22.033Z,75483.94
2022-09-28T12:34:48.556Z,75474.00
2022-09-28T12:37:33.709Z,75485.94
2022-09-28T12:40:12.263Z,75450.16
2022-09-28T12:43:04.958Z,75382.63
2022-09-28T12:45:47.896Z,75362.75
2022-09-28T12:48:43.222Z,75350.84
2022-09-28T12:51:36.172Z,75382.63
2022-09-28T12:54:19.869Z,75370.72
2022-09-28T12:56:52.050Z,75360.78
2022-09-28T12:59:30.876Z,75382.63
2022-09-28T13:02:21.288Z,75416.41
2022-09-28T13:05:13.537Z,75410.44
2022-09-28T13:07:49.982Z,75446.19
2022-09-28T13:10:36.094Z,75450.16
2022-09-28T13:13:45.397Z,75468.06
2022-09-28T13:16:21.482Z,75487.91
2022-09-28T13:19:11.268Z,75470.03
2022-09-28T13:21:57.828Z,75507.78
2022-09-28T13:24:33.075Z,75525.66
2022-09-28T13:27:09.296Z,75557.44
2022-09-28T13:32:12.643Z,75581.28
2022-09-28T13:34:39.768Z,75605.13
2022-09-28T13:37:17.431Z,75587.25
2022-09-28T13:40:05.919Z,75589.22
2022-09-28T13:42:44.592Z,75577.31
2022-09-28T13:45:20.015Z,75583.28
2022-09-28T13:48:14.678Z,75589.22
2022-09-28T13:50:56.364Z,75575.31
2022-09-28T13:53:39.596Z,75557.44
2022-09-28T13:56:21.415Z,75547.50
2022-09-28T13:58:53.608Z,75555.47
2022-09-28T14:01:41.621Z,75559.44
2022-09-28T14:04:21.930Z,75537.59
2022-09-28T14:06:57.527Z,75563.41
2022-09-28T14:09:25.742Z,75577.31
2022-09-28T14:11:59.704Z,75579.31
2022-09-28T14:14:47.255Z,75533.59
2022-09-28T14:17:19.680Z,75505.78
2022-09-28T14:19:53.174Z,75513.75
2022-09-28T14:22:42.955Z,75497.84
2022-09-28T14:25:30.716Z,75493.88
2022-09-28T14:28:41.056Z,75499.84
2022-09-28T14:31:22.584Z,75525.66
2022-09-28T14:34:01.710Z,75509.78
2022-09-28T14:37:00.803Z,75525.66
2022-09-28T14:39:49.556Z,75557.44
2022-09-28T14:42:20.974Z,75555.47
2022-09-28T14:45:13.772Z,75581.28
2022-09-28T14:48:03.636Z,75579.31
2022-09-28T14:50:30.300Z,75603.13
2022-09-28T14:53:26.400Z,75589.22
2022-09-28T14:55:57.737Z,75597.19
2022-09-28T14:58:27.961Z,75601.16
2022-09-28T15:01:15.975Z,75625.00
2022-09-28T15:03:46.575Z,75662.75
2022-09-28T15:06:17.063Z,75656.78
2022-09-28T15:08:43.527Z,75672.66
2022-09-28T15:11:15.013Z,75658.75
2022-09-28T15:13:42.862Z,75652.81
2022-09-28T15:16:14.369Z,75638.91
2022-09-28T15:19:18.645Z,75652.81
2022-09-28T15:21:50.102Z,75668.69
2022-09-28T15:24:32.391Z,75684.59
2022-09-28T15:27:15.586Z,75700.47
2022-09-28T15:29:42.013Z,75696.50
2022-09-28T15:32:24.012Z,75696.50
2022-09-28T15:34:54.654Z,75680.63
2022-09-28T15:37:40.375Z,75710.41
2022-09-28T15:40:15.199Z,75704.47
2022-09-28T15:42:41.795Z,75710.41
2022-09-28T15:45:14.159Z,75724.31
2022-09-28T15:47:43.675Z,75704.47
2022-09-28T15:50:21.116Z,75708.44
2022-09-28T15:53:06.360Z,75712.41
2022-09-28T15:55:37.172Z,75730.28
2022-09-28T15:58:15.724Z,75742.19
2022-09-28T16:00:43.661Z,75728.31
2022-09-28T16:03:10.598Z,75730.28
2022-09-28T16:05:48.745Z,75726.31
2022-09-28T16:08:27.359Z,75752.13
2022-09-28T16:11:13.140Z,75746.19
2022-09-28T16:13:56.585Z,75764.06
2022-09-28T16:16:35.596Z,75791.88
2022-09-28T16:19:03.657Z,75805.78
2022-09-28T16:21:33.962Z,75817.69
2022-09-28T16:24:00.885Z,75831.59
2022-09-28T16:26:34.226Z,75835.59
2022-09-28T16:29:07.584Z,75839.56
2022-09-28T16:35:28.050Z,75887.22
2022-09-28T16:38:14.687Z,75891.22
2022-09-28T16:40:43.413Z,75899.16
2022-09-28T16:43:26.821Z,75913.06
2022-09-28T16:45:58.406Z,75928.97
2022-09-28T16:48:31.338Z,75936.91
2022-09-28T16:50:58.690Z,75950.81
2022-09-28T16:53:44.116Z,75948.81
2022-09-28T16:56:12.369Z,75982.59
2022-09-28T16:58:39.185Z,75986.56
2022-09-28T17:01:09.666Z,75994.53
2022-09-28T17:03:36.312Z,76006.44
2022-09-28T17:06:05.228Z,76006.44
2022-09-28T17:08:32.952Z,76004.47
2022-09-28T17:11:22.803Z,76024.31
2022-09-28T17:13:48.733Z,76012.41
2022-09-28T17:16:49.329Z,76012.41
2022-09-28T17:19:23.821Z,76040.22
2022-09-28T17:21:52.205Z,76042.22
2022-09-28T17:24:19.827Z,76026.31
2022-09-28T17:26:49.532Z,76032.28
2022-09-28T17:29:16.448Z,76024.31
2022-09-28T17:31:44.773Z,76036.25
2022-09-28T17:34:20.343Z,76032.28
2022-09-28T17:36:47.300Z,75996.50
2022-09-28T17:39:19.076Z,76006.44
2022-09-28T17:41:45.728Z,76024.31
2022-09-28T17:44:16.283Z,76016.38
2022-09-28T17:46:49.518Z,76018.38
2022-09-28T17:49:17.538Z,76028.31
2022-09-28T17:51:44.475Z,76014.41
2022-09-28T17:54:12.965Z,76002.47
2022-09-28T17:56:39.580Z,76012.41
2022-09-28T17:59:10.044Z,76030.28
2022-09-28T18:01:38.817Z,76030.28
2022-09-28T18:04:08.110Z,76014.41
2022-09-28T18:06:36.165Z,76038.22
2022-09-28T18:09:03.949Z,76040.22
2022-09-28T18:11:31.756Z,76032.28
2022-09-28T18:13:58.223Z,76030.28
2022-09-28T18:16:26.120Z,76038.22
2022-09-28T18:18:52.697Z,76030.28
2022-09-28T18:21:19.858Z,76030.28
2022-09-28T18:23:46.388Z,76058.09
2022-09-28T18:26:15.223Z,76062.06
2022-09-28T18:28:41.814Z,76044.19
2022-09-28T18:31:13.141Z,76066.06
2022-09-28T18:33:40.034Z,76068.03
2022-09-28T18:36:08.159Z,76058.09
2022-09-28T18:38:38.469Z,76064.06
2022-09-28T18:41:10.179Z,76070.03
2022-09-28T18:43:37.406Z,76087.91
2022-09-28T18:46:11.366Z,76076.00
2022-09-28T18:48:40.501Z,76076.00
2022-09-28T18:51:11.902Z,76081.94
2022-09-28T18:53:39.140Z,76095.84
2022-09-28T18:56:11.301Z,76095.84
2022-09-28T18:58:39.484Z,76115.72
2022-09-28T19:01:29.437Z,76121.69
2022-09-28T19:04:06.983Z,76139.56
2022-09-28T19:06:34.993Z,76157.44
2022-09-28T19:09:02.322Z,76165.41
2022-09-28T19:11:28.928Z,76175.34
2022-09-28T19:13:56.070Z,76185.25
2022-09-28T19:16:28.704Z,76193.22
2022-09-28T19:18:58.956Z,76205.13
2022-09-28T19:21:26.760Z,76195.19
2022-09-28T19:23:55.319Z,76183.28
2022-09-28T19:26:25.406Z,76187.25
2022-09-28T19:28:51.997Z,76181.28
2022-09-28T19:31:19.365Z,76197.19
2022-09-28T19:33:46.643Z,76201.16
2022-09-28T19:36:20.136Z,76205.13
2022-09-28T19:38:46.880Z,76197.19
2022-09-28T19:41:39.416Z,76207.13
2022-09-28T19:44:19.616Z,76217.06
2022-09-28T19:46:46.950Z,76230.97
2022-09-28T19:49:19.424Z,76228.97
2022-09-28T19:52:11.663Z,76230.97
2022-09-28T19:54:36.794Z,76242.88
2022-09-28T19:57:07.867Z,76238.91
2022-09-28T19:59:36.884Z,76254.81
2022-09-28T20:02:05.796Z,76258.78
2022-09-28T20:04:32.446Z,76260.78
2022-09-28T20:07:02.312Z,76262.75
2022-09-28T20:09:29.181Z,76288.59
2022-09-28T20:11:55.833Z,76304.50
2022-09-28T20:14:25.798Z,76304.50
2022-09-28T20:16:55.133Z,76308.47
2022-09-28T20:19:25.175Z,76320.38
2022-09-28T20:21:52.325Z,76318.41
2022-09-28T20:24:20.040Z,76326.34
2022-09-28T20:26:46.707Z,76334.28
2022-09-28T20:29:13.383Z,76342.25
2022-09-28T20:31:40.473Z,76348.19
2022-09-28T20:34:07.325Z,76350.19
2022-09-28T20:36:34.271Z,76352.19
2022-09-28T20:39:06.055Z,76346.22
2022-09-28T20:41:36.906Z,76350.19
2022-09-28T20:44:16.765Z,76346.22
2022-09-28T20:46:44.176Z,76346.22
2022-09-28T20:49:10.985Z,76356.16
2022-09-28T20:51:37.456Z,76348.19
2022-09-28T20:54:03.933Z,76340.25
2022-09-28T20:56:37.588Z,76352.19
2022-09-28T20:59:07.284Z,76364.09
2022-09-28T21:01:34.026Z,76362.09
2022-09-28T21:04:02.081Z,76378.00
2022-09-28T21:06:31.059Z,76387.94
2022-09-28T21:08:58.778Z,76395.91
2022-09-28T21:11:26.843Z,76387.94
2022-09-28T21:13:58.903Z,76393.91
2022-09-28T21:16:27.670Z,76397.88
2022-09-28T21:18:54.242Z,76399.88
2022-09-28T21:21:22.420Z,76403.84
2022-09-28T21:23:59.189Z,76407.81
2022-09-28T21:26:28.281Z,76407.81
2022-09-28T21:28:57.886Z,76399.88
2022-09-28T21:31:29.228Z,76389.94
2022-09-28T21:33:56.525Z,76393.91
2022-09-28T21:36:23.052Z,76407.81
2022-09-28T21:38:49.643Z,76399.88
2022-09-28T21:41:16.541Z,76403.84
2022-09-28T21:43:43.120Z,76409.81
2022-09-28T21:46:09.940Z,76403.84
2022-09-28T21:48:36.459Z,76399.88
2022-09-28T21:51:05.629Z,76383.97
2022-09-28T21:53:34.882Z,76381.97
2022-09-28T21:56:02.846Z,76370.06
2022-09-28T21:58:31.564Z,76391.91
2022-09-28T22:01:14.800Z,76380.00
2022-09-28T22:03:43.996Z,76376.03
2022-09-28T22:06:11.236Z,76374.03
2022-09-28T22:08:39.144Z,76364.09
2022-09-28T22:11:12.023Z,76374.03
2022-09-28T22:13:44.466Z,76378.00
2022-09-28T22:16:12.942Z,76383.97
2022-09-28T22:18:39.930Z,76378.00
2022-09-28T22:21:11.698Z,76380.00
2022-09-28T22:23:38.917Z,76378.00
2022-09-28T22:26:08.208Z,76370.06
2022-09-28T22:28:35.304Z,76362.09
2022-09-28T22:31:01.851Z,76372.03
2022-09-28T22:33:28.507Z,76376.03
2022-09-28T22:35:55.504Z,76368.06
2022-09-28T22:38:24.336Z,76372.03
2022-09-28T22:40:55.721Z,76376.03
2022-09-28T22:43:24.080Z,76380.00
2022-09-28T22:46:00.194Z,76387.94
2022-09-28T22:48:26.716Z,76387.94
2022-09-28T22:50:53.198Z,76389.94
2022-09-28T22:53:19.704Z,76399.88
2022-09-28T22:55:46.249Z,76415.75
2022-09-28T22:58:12.787Z,76421.72
2022-09-28T23:00:39.582Z,76435.63
2022-09-28T23:03:06.364Z,76437.63
2022-09-28T23:05:33.018Z,76439.59
2022-09-28T23:07:59.519Z,76441.59
2022-09-28T23:10:25.979Z,76447.56
2022-09-28T23:12:55.563Z,76449.53
2022-09-28T23:15:23.139Z,76471.41
2022-09-28T23:17:53.606Z,76477.38
2022-09-28T23:20:21.522Z,76471.41
2022-09-28T23:22:48.679Z,76475.38
2022-09-28T23:25:17.725Z,76481.34
2022-09-28T23:27:48.649Z,76489.28
2022-09-28T23:30:17.332Z,76491.28
2022-09-28T23:32:44.672Z,76485.31
2022-09-28T23:35:12.027Z,76495.25
2022-09-28T23:37:38.972Z,76491.28
2022-09-28T23:40:07.112Z,76507.16
2022-09-28T23:42:34.930Z,76507.16
2022-09-28T23:45:01.459Z,76517.09
2022-09-28T23:47:28.129Z,76503.19
2022-09-28T23:49:54.555Z,76509.16
2022-09-28T23:52:20.987Z,76523.06
2022-09-28T23:54:47.453Z,76533.00
2022-09-28T23:57:13.934Z,76525.06
2022-09-28T23:59:40.459Z,76519.09
